Welcome to Northern Hawkes Bay. New Zealand.
PWS Header
      nz Flag



Hit Counter


W3C Valid W3C Valid logo


    Wairoa

Select any of the Stations below to visit their websites.










Historic Data from Weather Underground
Select the location of interest below. Wairoa is the default. Please have patience, this Data is slow to load in.
Northern Hawkes Bay Historical Data
Daily Summary for July 29, 2017 Units:  English    Metric   Both
« Previous Day
Next Day »
Daily Weekly Monthly Yearly Custom
  High: Low: Average:
Temperature: 51.3 °F 42.8 °F 46.6 °F
Dew Point: 38.3 °F 33.4 °F 35.6 °F
Humidity: 79% 55% 66%
Wind Speed: 25.9mph 5.4mph 15.2mph
Wind Gust: 34.2mph - -
Wind- - SW
Pressure: 30.3 in 30 in -
Precipitation: 0 in    
Historical Graphs
 
 
Tabular Data for July 29, 2017
Time Temperature Dew Point Pressure Wind Wind Speed Wind Gust Humidity Rainfall Rate (Hourly) solar
00:10 44.1 °F 36 °F 30 in SW 20.6 mph 29.8 mph 73% 0 in 0 W/m2
00:15 44.2 °F 36.1 °F 30 in SW 19 mph 29.8 mph 73% 0 in 0 W/m2
00:20 44.2 °F 36.1 °F 30 in SW 14.5 mph 28.2 mph 73% 0 in 0 W/m2
00:25 44.2 °F 36.1 °F 30 in SW 16.8 mph 28.2 mph 73% 0 in 0 W/m2
00:30 44.1 °F 36 °F 30 in SW 14.5 mph 25.9 mph 73% 0 in 0 W/m2
00:35 44.2 °F 36.1 °F 30 in WSW 13 mph 24.4 mph 73% 0 in 0 W/m2
00:40 44.2 °F 36.1 °F 30 in SW 11.4 mph 23.5 mph 73% 0 in 0 W/m2
00:45 44.2 °F 36.1 °F 30 in SW 11.4 mph 28.2 mph 73% 0 in 0 W/m2
00:50 44.2 °F 36.1 °F 30 in SW 11.4 mph 28.2 mph 73% 0 in 0 W/m2
00:55 44.1 °F 36 °F 30 in West 16.8 mph 27.3 mph 73% 0 in 0 W/m2
01:00 44.1 °F 36 °F 30 in West 14.5 mph 27.3 mph 73% 0 in 0 W/m2
01:05 44.1 °F 36 °F 30 in WSW 9.2 mph 25.1 mph 73% 0 in 0 W/m2
01:10 43.9 °F 35.8 °F 30 in SW 13.6 mph 25.9 mph 73% 0 in 0 W/m2
01:15 44.1 °F 36.3 °F 30 in SW 13.6 mph 26.6 mph 74% 0 in 0 W/m2
01:20 44.1 °F 36.3 °F 30 in SW 19 mph 26.6 mph 74% 0 in 0 W/m2
01:25 44.1 °F 36.3 °F 30 in SW 19.7 mph 26.6 mph 74% 0 in 0 W/m2
01:30 44.1 °F 36.3 °F 30 in WSW 12.1 mph 26.6 mph 74% 0 in 0 W/m2
01:35 44.1 °F 36 °F 30 in WSW 17.4 mph 26.6 mph 73% 0 in 0 W/m2
01:40 44.1 °F 36 °F 30 in SW 16.8 mph 30.4 mph 73% 0 in 0 W/m2
01:45 43.9 °F 35.8 °F 30 in SW 19.7 mph 30.4 mph 73% 0 in 0 W/m2
01:50 43.9 °F 36.1 °F 30 in SW 23.5 mph 29.8 mph 74% 0 in 0 W/m2
01:55 43.2 °F 36.1 °F 30 in SW 15.2 mph 29.8 mph 76% 0 in 0 W/m2
02:00 42.8 °F 36.7 °F 30 in SW 14.5 mph 28.2 mph 79% 0 in 0 W/m2
02:05 43 °F 36.9 °F 30 in SW 14.5 mph 27.3 mph 79% 0 in 0 W/m2
02:11 43 °F 36.9 °F 30 in SW 15.9 mph 28.9 mph 79% 0 in 0 W/m2
02:16 43.2 °F 36.3 °F 30 in SW 15.2 mph 28.9 mph 77% 0 in 0 W/m2
02:21 43.2 °F 36.3 °F 30 in SW 12.1 mph 25.1 mph 77% 0 in 0 W/m2
02:26 43 °F 36.3 °F 30 in SW 13.6 mph 25.1 mph 77% 0 in 0 W/m2
02:31 43 °F 36 °F 30 in SW 14.5 mph 28.2 mph 76% 0 in 0 W/m2
02:36 43 °F 36 °F 30 in SW 13 mph 28.2 mph 76% 0 in 0 W/m2
02:41 43 °F 35.6 °F 30 in SW 13.6 mph 26.6 mph 75% 0 in 0 W/m2
02:46 43 °F 36 °F 30 in WSW 15.2 mph 26.6 mph 76% 0 in 0 W/m2
02:51 43.2 °F 36.1 °F 30 in WSW 15.9 mph 22.8 mph 76% 0 in 0 W/m2
02:56 43.2 °F 35.8 °F 30 in WSW 17.4 mph 25.9 mph 75% 0 in 0 W/m2
03:01 43.2 °F 35.8 °F 30 in SW 14.5 mph 25.9 mph 75% 0 in 0 W/m2
03:06 43.2 °F 35.4 °F 30 in SSW 15.9 mph 26.6 mph 74% 0 in 0 W/m2
03:11 43.2 °F 35.8 °F 30 in SW 11.4 mph 26.6 mph 75% 0 in 0 W/m2
03:16 43.2 °F 35.8 °F 30 in SW 14.5 mph 24.4 mph 75% 0 in 0 W/m2
03:21 43.2 °F 35.8 °F 30 in SW 15.9 mph 24.4 mph 75% 0 in 0 W/m2
03:26 43.5 °F 36.1 °F 30 in SW 17.4 mph 26.6 mph 75% 0 in 0 W/m2
03:31 43.2 °F 35.4 °F 30 in SW 10.7 mph 27.3 mph 74% 0 in 0 W/m2
03:36 43.2 °F 35.4 °F 30 in SW 13.6 mph 27.3 mph 74% 0 in 0 W/m2
03:41 43.5 °F 36.1 °F 30 in WSW 20.6 mph 26.6 mph 75% 0 in 0 W/m2
03:46 43.5 °F 35.8 °F 30 in WSW 15.9 mph 26.6 mph 74% 0 in 0 W/m2
03:51 43.5 °F 35.8 °F 30 in WSW 18.3 mph 26.6 mph 74% 0 in 0 W/m2
03:56 43.5 °F 35.8 °F 30 in WSW 25.9 mph 32.7 mph 74% 0 in 0 W/m2
04:01 43.5 °F 35.4 °F 30 in SW 15.2 mph 32.7 mph 73% 0 in 0 W/m2
04:06 43.5 °F 35.4 °F 30 in WSW 18.3 mph 29.8 mph 73% 0 in 0 W/m2
04:11 43.5 °F 35.4 °F 30 in WSW 13.6 mph 28.9 mph 73% 0 in 0 W/m2
04:16 43.5 °F 35.4 °F 30 in WSW 10.7 mph 27.3 mph 73% 0 in 0 W/m2
04:22 43.5 °F 35.4 °F 30 in WSW 14.5 mph 27.3 mph 73% 0 in 0 W/m2
04:27 43.5 °F 35.4 °F 30 in WSW 10.7 mph 24.4 mph 73% 0 in 0 W/m2
04:32 43.5 °F 35.4 °F 30 in SW 15.9 mph 24.4 mph 73% 0 in 0 W/m2
04:37 43.5 °F 35.8 °F 30 in SW 20.6 mph 28.9 mph 74% 0 in 0 W/m2
04:42 43.5 °F 35.4 °F 30 in SW 16.8 mph 28.9 mph 73% 0 in 0 W/m2
04:47 43.7 °F 35.6 °F 30 in WSW 22.1 mph 28.9 mph 73% 0 in 0 W/m2
04:57 43.7 °F 35.6 °F 30 in SW 18.3 mph 34.2 mph 73% 0 in 0 W/m2
05:02 43.5 °F 35.4 °F 30 in WSW 15.9 mph 34.2 mph 73% 0 in 0 W/m2
05:07 43.5 °F 35.4 °F 30 in West 19 mph 27.3 mph 73% 0 in 0 W/m2
05:12 43.5 °F 35.8 °F 30 in WSW 19.7 mph 28.9 mph 74% 0 in 0 W/m2
05:17 43.5 °F 35.8 °F 30 in SW 16.8 mph 28.9 mph 74% 0 in 0 W/m2
05:22 43.5 °F 35.8 °F 30 in SW 14.5 mph 28.9 mph 74% 0 in 0 W/m2
05:27 43.5 °F 35.4 °F 30 in SW 21.3 mph 28.9 mph 73% 0 in 0 W/m2
05:32 43.5 °F 35.1 °F 30 in WSW 15.9 mph 28.9 mph 72% 0 in 0 W/m2
05:37 43.5 °F 35.4 °F 30 in WSW 22.8 mph 32 mph 73% 0 in 0 W/m2
05:42 43.5 °F 35.1 °F 30 in SW 20.6 mph 32 mph 72% 0 in 0 W/m2
05:47 43.7 °F 35.6 °F 30 in SW 16.8 mph 32 mph 73% 0 in 0 W/m2
05:48 43.5 °F 35.1 °F 30 in SW 16.8 mph 31.1 mph 72% 0 in 0 W/m2
05:58 43.7 °F 35.2 °F 30 in WSW 11.4 mph 28.9 mph 72% 0 in 0 W/m2
06:03 43.7 °F 35.2 °F 30 in SW 15.2 mph 28.9 mph 72% 0 in 0 W/m2
06:08 43.9 °F 35.4 °F 30.1 in SW 13.6 mph 27.3 mph 72% 0 in 0 W/m2
06:13 43.9 °F 35.1 °F 30.1 in SW 14.5 mph 28.9 mph 71% 0 in 0 W/m2
06:18 43.9 °F 35.4 °F 30.1 in SW 15.9 mph 28.9 mph 72% 0 in 0 W/m2
06:23 43.5 °F 35.1 °F 30.1 in SW 14.5 mph 26.6 mph 72% 0 in 0 W/m2
06:28 43.2 °F 34.9 °F 30.1 in SW 21.3 mph 30.4 mph 72% 0 in 0 W/m2
06:33 43.5 °F 35.1 °F 30.1 in WSW 17.4 mph 30.4 mph 72% 0 in 0 W/m2
06:38 43.2 °F 34.9 °F 30.1 in SW 17.4 mph 30.4 mph 72% 0 in 0 W/m2
06:43 43.5 °F 35.1 °F 30.1 in SW 12.1 mph 22.8 mph 72% 0 in 0 W/m2
06:48 43.5 °F 35.1 °F 30.1 in SW 13.6 mph 26.6 mph 72% 0 in 0 W/m2
06:53 43.5 °F 34.9 °F 30.1 in SW 18.3 mph 27.3 mph 71% 0 in 0 W/m2
06:58 43.5 °F 35.1 °F 30.1 in WSW 13 mph 27.3 mph 72% 0 in 0 W/m2
07:03 43.5 °F 35.1 °F 30.1 in West 15.2 mph 26.6 mph 72% 0 in 0 W/m2
07:08 43.9 °F 35.1 °F 30.1 in SW 12.1 mph 28.2 mph 71% 0 in 0 W/m2
07:13 43.9 °F 34.3 °F 30.1 in SW 15.9 mph 28.2 mph 69% 0 in 0 W/m2
07:18 43.9 °F 34.7 °F 30.1 in SW 15.2 mph 28.2 mph 70% 0 in 0 W/m2
07:23 44.1 °F 34.2 °F 30.1 in SW 18.3 mph 28.2 mph 68% 0 in 0 W/m2
07:28 44.1 °F 33.8 °F 30.1 in WSW 19 mph 31.1 mph 67% 0 in 3 W/m2
07:33 44.1 °F 33.8 °F 30.1 in SW 16.8 mph 31.1 mph 67% 0 in 5 W/m2
07:38 44.1 °F 34.2 °F 30.1 in SW 15.9 mph 28.2 mph 68% 0 in 8 W/m2
07:43 44.1 °F 33.8 °F 30.1 in WSW 14.5 mph 27.3 mph 67% 0 in 13 W/m2
07:48 44.1 °F 33.8 °F 30.1 in West 15.2 mph 28.9 mph 67% 0 in 18 W/m2
07:53 44.1 °F 33.8 °F 30.1 in WSW 11.4 mph 28.9 mph 67% 0 in 21 W/m2
07:58 44.2 °F 33.6 °F 30.1 in SW 14.5 mph 27.3 mph 66% 0 in 19 W/m2
08:03 44.2 °F 34.3 °F 30.1 in SW 11.4 mph 27.3 mph 68% 0 in 19 W/m2
08:08 44.2 °F 34 °F 30.1 in SW 15.9 mph 29.8 mph 67% 0 in 22 W/m2
08:13 44.4 °F 33.8 °F 30.1 in WSW 16.8 mph 32 mph 66% 0 in 24 W/m2
08:18 44.4 °F 33.8 °F 30.1 in WSW 19.7 mph 32 mph 66% 0 in 27 W/m2
08:23 44.4 °F 33.4 °F 30.1 in SW 13.6 mph 31.1 mph 65% 0 in 43 W/m2
08:28 44.8 °F 33.4 °F 30.1 in SW 14.5 mph 31.1 mph 64% 0 in 57 W/m2
08:33 45.3 °F 34 °F 30.1 in WSW 19.7 mph 28.9 mph 64% 0 in 67 W/m2
08:38 45.1 °F 33.6 °F 30.1 in SW 18.3 mph 26.6 mph 64% 0 in 51 W/m2
08:43 45.3 °F 34 °F 30.1 in SW 18.3 mph 26.6 mph 64% 0 in 179 W/m2
08:48 45.5 °F 34.3 °F 30.1 in WSW 12.1 mph 26.6 mph 65% 0 in 67 W/m2
08:53 45.7 °F 34.2 °F 30.1 in WSW 13.6 mph 27.3 mph 64% 0 in 54 W/m2
08:58 45.3 °F 34 °F 30.1 in WSW 15.2 mph 27.3 mph 64% 0 in 188 W/m2
09:03 46 °F 34.5 °F 30.1 in SW 10.7 mph 26.6 mph 64% 0 in 123 W/m2
09:08 45.7 °F 34.2 °F 30.1 in SW 13.6 mph 27.3 mph 64% 0 in 75 W/m2
09:13 45.3 °F 34.3 °F 30.1 in SW 13 mph 27.3 mph 65% 0 in 66 W/m2
09:18 45.1 °F 34.2 °F 30.1 in WSW 13 mph 29.8 mph 65% 0 in 61 W/m2
09:23 45.1 °F 34.2 °F 30.1 in SW 15.9 mph 29.8 mph 65% 0 in 57 W/m2
09:29 45.5 °F 34 °F 30.1 in SW 18.3 mph 30.4 mph 64% 0 in 243 W/m2
09:34 46.2 °F 34.7 °F 30.1 in SW 19 mph 30.4 mph 64% 0 in 162 W/m2
09:52 47.1 °F 34.3 °F 30.1 in WSW 18.3 mph 34.2 mph 61% 0 in 68 W/m2
09:57 47.1 °F 34 °F 30.1 in WSW 18.3 mph 33.6 mph 60% 0 in 69 W/m2
10:02 47.5 °F 35.4 °F 30.1 in WSW 21.3 mph 33.6 mph 63% 0 in 74 W/m2
10:07 47.5 °F 34.7 °F 30.1 in WSW 19 mph 30.4 mph 61% 0 in 92 W/m2
10:12 47.5 °F 35.1 °F 30.1 in WSW 12.1 mph 30.4 mph 62% 0 in 78 W/m2
10:17 47.1 °F 35.2 °F 30.1 in SW 15.2 mph 28.9 mph 63% 0 in 68 W/m2
10:27 47.8 °F 36 °F 30.1 in SW 17.4 mph 30.4 mph 63% 0 in 67 W/m2
10:32 47.8 °F 34.5 °F 30.1 in SW 19 mph 31.1 mph 60% 0 in 69 W/m2
10:37 48 °F 35.2 °F 30.1 in SW 19 mph 32.7 mph 61% 0 in 76 W/m2
10:42 48.4 °F 34.7 °F 30.1 in SW 14.5 mph 32.7 mph 59% 0 in 88 W/m2
10:47 48.4 °F 34.3 °F 30.1 in SW 17.4 mph 28.9 mph 58% 0 in 135 W/m2
10:52 48.4 °F 34.3 °F 30.1 in SW 19 mph 28.9 mph 58% 0 in 156 W/m2
10:57 48.7 °F 34.5 °F 30.1 in SW 11.4 mph 28.9 mph 58% 0 in 227 W/m2
11:02 49.1 °F 35.1 °F 30.1 in SW 14.5 mph 29.8 mph 58% 0 in 264 W/m2
11:07 49.1 °F 35.1 °F 30.1 in SW 19 mph 29.8 mph 58% 0 in 268 W/m2
11:12 48.9 °F 34.3 °F 30.1 in WSW 19 mph 31.1 mph 57% 0 in 313 W/m2
11:17 49.1 °F 35.8 °F 30.1 in WSW 19.7 mph 31.1 mph 60% 0 in 275 W/m2
11:22 48.9 °F 35.8 °F 30.1 in SW 19.7 mph 29.8 mph 60% 0 in 303 W/m2
11:27 49.3 °F 36.3 °F 30.1 in SW 16.8 mph 28.9 mph 61% 0 in 309 W/m2
11:32 49.3 °F 36.3 °F 30.1 in WSW 19 mph 31.1 mph 61% 0 in 289 W/m2
11:37 48.9 °F 35.2 °F 30.1 in SW 20.6 mph 31.1 mph 59% 0 in 280 W/m2
11:42 49.5 °F 36.1 °F 30.1 in SW 17.4 mph 29.8 mph 60% 0 in 314 W/m2
11:47 49.5 °F 36.1 °F 30.1 in SW 15.9 mph 28.9 mph 60% 0 in 261 W/m2
11:52 49.3 °F 36.9 °F 30.1 in SW 15.9 mph 25.1 mph 62% 0 in 266 W/m2
11:57 50 °F 36.1 °F 30.1 in WSW 15.9 mph 25.9 mph 59% 0 in 245 W/m2
12:02 50 °F 34.9 °F 30.1 in WSW 17.4 mph 25.9 mph 56% 0 in 248 W/m2
12:07 50 °F 34.9 °F 30.1 in SW 14.5 mph 27.3 mph 56% 0 in 240 W/m2
12:12 50.2 °F 36.3 °F 30.1 in SW 12.1 mph 27.3 mph 59% 0 in 226 W/m2
12:17 49.8 °F 35.2 °F 30.1 in WSW 14.5 mph 28.9 mph 57% 0 in 117 W/m2
12:27 50.4 °F 36.1 °F 30.1 in SW 14.5 mph 33.6 mph 58% 0 in 208 W/m2
12:32 50.7 °F 36.1 °F 30.1 in SW 15.9 mph 33.6 mph 57% 0 in 79 W/m2
12:37 50.2 °F 36.9 °F 30.1 in SW 12.1 mph 29.8 mph 60% 0 in 165 W/m2
12:42 50 °F 35.8 °F 30.1 in SW 19 mph 29.8 mph 58% 0 in 69 W/m2
12:47 50.2 °F 36 °F 30.1 in SW 12.1 mph 28.9 mph 58% 0 in 109 W/m2
12:52 50 °F 37 °F 30.1 in SSW 15.2 mph 28.9 mph 61% 0 in 154 W/m2
12:57 49.5 °F 37.8 °F 30.1 in SW 14.5 mph 27.3 mph 64% 0 in 147 W/m2
13:02 50.4 °F 38.3 °F 30.1 in SW 12.1 mph 27.3 mph 63% 0 in 121 W/m2
13:07 50.5 °F 36.9 °F 30.1 in SW 11.4 mph 25.9 mph 59% 0 in 128 W/m2
13:12 50 °F 36.1 °F 30.1 in SW 15.9 mph 25.9 mph 59% 0 in 88 W/m2
13:17 49.6 °F 36.3 °F 30.1 in SW 19.7 mph 26.6 mph 60% 0 in 126 W/m2
13:22 50.4 °F 36.7 °F 30.1 in WSW 13.6 mph 26.6 mph 59% 0 in 113 W/m2
13:27 50 °F 36.1 °F 30.1 in WSW 19 mph 29.8 mph 59% 0 in 156 W/m2
13:32 50.2 °F 36 °F 30.1 in SW 15.2 mph 29.8 mph 58% 0 in 153 W/m2
13:37 49.8 °F 35.6 °F 30.1 in SW 16.8 mph 28.2 mph 58% 0 in 142 W/m2
13:42 50.2 °F 36.3 °F 30.1 in SW 15.9 mph 28.2 mph 59% 0 in 121 W/m2
13:47 50 °F 34.9 °F 30.1 in SW 18.3 mph 27.3 mph 56% 0 in 129 W/m2
13:52 49.6 °F 36.3 °F 30.1 in SW 14.5 mph 28.2 mph 60% 0 in 116 W/m2
13:57 49.3 °F 35.6 °F 30.1 in SW 17.4 mph 28.2 mph 59% 0 in 138 W/m2
14:02 49.5 °F 36.1 °F 30.1 in SSW 16.8 mph 26.6 mph 60% 0 in 99 W/m2
14:07 49.1 °F 35.4 °F 30.1 in SW 21.3 mph 29.8 mph 59% 0 in 117 W/m2
14:12 50 °F 37 °F 30.1 in SW 21.3 mph 29.8 mph 61% 0 in 112 W/m2
14:17 50 °F 35.8 °F 30.1 in SW 23.5 mph 33.6 mph 58% 0 in 99 W/m2
14:22 49.5 °F 35.8 °F 30.1 in SW 13.6 mph 33.6 mph 59% 0 in 88 W/m2
14:27 49.1 °F 35.4 °F 30.1 in SW 20.6 mph 31.1 mph 59% 0 in 135 W/m2
14:32 49.1 °F 35.1 °F 30.1 in WSW 17.4 mph 31.1 mph 58% 0 in 139 W/m2
14:37 49.1 °F 34.5 °F 30.1 in SW 16.8 mph 29.8 mph 57% 0 in 168 W/m2
14:42 50 °F 35.8 °F 30.1 in SW 17.4 mph 29.8 mph 58% 0 in 103 W/m2
14:47 49.6 °F 36 °F 30.1 in SW 11.4 mph 28.9 mph 59% 0 in 107 W/m2
14:52 49.5 °F 35.2 °F 30.1 in SW 15.9 mph 28.9 mph 58% 0 in 113 W/m2
14:57 49.5 °F 35.8 °F 30.1 in SW 15.9 mph 25.9 mph 59% 0 in 85 W/m2
15:02 49.3 °F 35.1 °F 30.1 in SW 14.5 mph 22.8 mph 58% 0 in 103 W/m2
15:07 49.5 °F 35.2 °F 30.1 in SW 14.5 mph 25.9 mph 58% 0 in 71 W/m2
15:12 49.5 °F 35.8 °F 30.1 in SW 18.3 mph 25.9 mph 59% 0 in 94 W/m2
15:17 50 °F 35.4 °F 30.1 in SW 13.6 mph 23.5 mph 57% 0 in 139 W/m2
15:22 50.2 °F 35.4 °F 30.1 in SW 9.8 mph 23.5 mph 57% 0 in 140 W/m2
15:27 50.5 °F 35.1 °F 30.1 in SW 14.5 mph 26.6 mph 55% 0 in 136 W/m2
15:32 50.9 °F 35.8 °F 30.1 in SW 13 mph 28.9 mph 56% 0 in 135 W/m2
15:37 51.3 °F 36.7 °F 30.1 in SW 19.7 mph 28.9 mph 57% 0 in 153 W/m2
15:42 51.1 °F 36 °F 30.1 in SW 14.5 mph 31.1 mph 56% 0 in 134 W/m2
15:47 50.5 °F 35.4 °F 30.1 in SW 10.7 mph 31.1 mph 56% 0 in 130 W/m2
15:52 51.1 °F 36.3 °F 30.1 in SW 10.7 mph 28.2 mph 57% 0 in 108 W/m2
15:57 51.1 °F 36 °F 30.1 in SW 11.4 mph 25.1 mph 56% 0 in 67 W/m2
16:02 50.2 °F 35.4 °F 30.1 in SW 15.2 mph 25.1 mph 57% 0 in 86 W/m2
16:07 49.5 °F 35.2 °F 30.1 in WSW 11.4 mph 24.4 mph 58% 0 in 50 W/m2
16:12 49.3 °F 34.7 °F 30.1 in WSW 19 mph 30.4 mph 57% 0 in 34 W/m2
16:17 49.3 °F 35.1 °F 30.1 in SW 15.9 mph 30.4 mph 58% 0 in 51 W/m2
16:22 50 °F 35.8 °F 30.1 in SW 9.8 mph 27.3 mph 58% 0 in 41 W/m2
16:27 49.8 °F 36.1 °F 30.1 in SW 14.5 mph 21.3 mph 59% 0 in 23 W/m2
16:32 49.1 °F 35.4 °F 30.1 in SW 17.4 mph 22.8 mph 59% 0 in 17 W/m2
16:37 49.3 °F 35.1 °F 30.1 in SW 13.6 mph 24.4 mph 58% 0 in 23 W/m2
16:42 49.3 °F 35.6 °F 30.1 in SW 14.5 mph 25.9 mph 59% 0 in 28 W/m2
16:47 49.5 °F 35.8 °F 30.1 in WSW 16.8 mph 25.9 mph 59% 0 in 31 W/m2
16:52 49.5 °F 34.9 °F 30.1 in WSW 19 mph 26.6 mph 57% 0 in 26 W/m2
17:02 49.3 °F 34.7 °F 30.1 in SW 15.9 mph 29.8 mph 57% 0 in 12 W/m2
17:07 49.1 °F 35.4 °F 30.1 in SW 15.2 mph 27.3 mph 59% 0 in 8 W/m2
17:12 48.9 °F 36.1 °F 30.1 in SW 13 mph 25.9 mph 61% 0 in 1 W/m2
17:17 48.6 °F 35.8 °F 30.1 in SW 11.4 mph 23.5 mph 61% 0 in 0 W/m2
17:22 48.6 °F 36.1 °F 30.1 in SSW 15.9 mph 24.4 mph 62% 0 in 0 W/m2
17:27 48.7 °F 37 °F 30.1 in SW 13.6 mph 28.9 mph 64% 0 in 0 W/m2
17:32 48.6 °F 35.2 °F 30.1 in SW 14.5 mph 28.9 mph 60% 0 in 0 W/m2
17:37 48.6 °F 34.9 °F 30.1 in SW 15.9 mph 26.6 mph 59% 0 in 0 W/m2
17:42 48.4 °F 34 °F 30.2 in SW 16.8 mph 27.3 mph 57% 0 in 0 W/m2
17:47 48.4 °F 35.6 °F 30.2 in SSW 21.3 mph 27.3 mph 61% 0 in 0 W/m2
17:52 48.2 °F 35.4 °F 30.2 in SW 13 mph 26.6 mph 61% 0 in 0 W/m2
17:57 48.2 °F 37 °F 30.2 in SSW 19.7 mph 26.6 mph 65% 0 in 0 W/m2
18:02 48.4 °F 37.2 °F 30.2 in SSW 14.5 mph 26.6 mph 65% 0 in 0 W/m2
18:07 48.7 °F 36.7 °F 30.2 in SW 13.6 mph 26.6 mph 63% 0 in 0 W/m2
18:12 48.6 °F 36.5 °F 30.2 in SW 17.4 mph 26.6 mph 63% 0 in 0 W/m2
18:17 48.4 °F 36.9 °F 30.2 in SW 18.3 mph 26.6 mph 64% 0 in 0 W/m2
18:22 48.4 °F 36.3 °F 30.2 in SSW 16.8 mph 25.9 mph 63% 0 in 0 W/m2
18:27 48.2 °F 36.1 °F 30.2 in SSW 19 mph 25.9 mph 63% 0 in 0 W/m2
18:32 48.4 °F 36 °F 30.2 in SW 14.5 mph 28.9 mph 62% 0 in 0 W/m2
18:37 48.2 °F 36.7 °F 30.2 in SSW 13 mph 28.9 mph 64% 0 in 0 W/m2
18:42 48 °F 36.9 °F 30.2 in SSW 18.3 mph 28.9 mph 65% 0 in 0 W/m2
18:47 48 °F 36.3 °F 30.2 in SW 14.5 mph 28.9 mph 64% 0 in 0 W/m2
18:52 48.2 °F 35.4 °F 30.2 in SW 13 mph 28.9 mph 61% 0 in 0 W/m2
18:57 48 °F 36.9 °F 30.2 in SW 19.7 mph 28.9 mph 65% 0 in 0 W/m2
19:02 48.2 °F 35.8 °F 30.2 in SW 15.2 mph 27.3 mph 62% 0 in 0 W/m2
19:07 47.8 °F 36 °F 30.2 in SSW 10.7 mph 27.3 mph 63% 0 in 0 W/m2
19:12 48 °F 36.3 °F 30.2 in SSW 16.8 mph 22.1 mph 64% 0 in 0 W/m2
19:17 48 °F 36.9 °F 30.2 in SW 13.6 mph 22.1 mph 65% 0 in 0 W/m2
19:22 48 °F 36.3 °F 30.2 in SW 14.5 mph 24.4 mph 64% 0 in 0 W/m2
19:27 47.8 °F 36.7 °F 30.2 in SSW 13.6 mph 24.4 mph 65% 0 in 0 W/m2
19:32 47.8 °F 36.7 °F 30.2 in SW 18.3 mph 25.1 mph 65% 0 in 0 W/m2
19:37 48 °F 36.9 °F 30.2 in SW 11.4 mph 25.1 mph 65% 0 in 0 W/m2
19:42 48 °F 36.9 °F 30.2 in SW 14.5 mph 25.1 mph 65% 0 in 0 W/m2
19:47 48.2 °F 36.7 °F 30.2 in SW 15.9 mph 22.1 mph 64% 0 in 0 W/m2
19:50 48.2 °F 36.7 °F 30.2 in SW 10.7 mph 22.1 mph 64% 0 in 0 W/m2
19:55 48 °F 36.9 °F 30.2 in SW 15.2 mph 25.1 mph 65% 0 in 0 W/m2
20:00 48 °F 36.9 °F 30.2 in SSW 15.2 mph 25.1 mph 65% 0 in 0 W/m2
20:05 48 °F 36 °F 30.2 in SW 16.8 mph 25.9 mph 63% 0 in 0 W/m2
20:10 48 °F 35.6 °F 30.2 in SW 15.2 mph 25.9 mph 62% 0 in 0 W/m2
20:15 48.2 °F 35.1 °F 30.2 in SW 15.2 mph 28.9 mph 60% 0 in 0 W/m2
20:20 48 °F 35.2 °F 30.2 in SW 15.2 mph 28.9 mph 61% 0 in 0 W/m2
20:25 48 °F 35.6 °F 30.2 in SW 19 mph 27.3 mph 62% 0 in 0 W/m2
20:30 47.8 °F 35.4 °F 30.2 in SW 15.2 mph 27.3 mph 62% 0 in 0 W/m2
20:35 47.8 °F 36 °F 30.2 in SW 13.6 mph 25.1 mph 63% 0 in 0 W/m2
20:40 47.7 °F 36.5 °F 30.2 in SW 19 mph 25.1 mph 65% 0 in 0 W/m2
20:45 47.5 °F 35.1 °F 30.2 in SW 15.2 mph 24.4 mph 62% 0 in 0 W/m2
20:50 47.5 °F 35.4 °F 30.2 in SW 16.8 mph 25.9 mph 63% 0 in 0 W/m2
20:55 47.5 °F 34.7 °F 30.2 in SW 15.2 mph 29.8 mph 61% 0 in 0 W/m2
21:00 47.5 °F 35.4 °F 30.2 in SW 13 mph 29.8 mph 63% 0 in 0 W/m2
21:05 47.5 °F 34.3 °F 30.2 in SW 9.8 mph 28.9 mph 60% 0 in 0 W/m2
21:10 47.5 °F 34.7 °F 30.2 in SW 15.2 mph 28.9 mph 61% 0 in 0 W/m2
21:15 47.5 °F 34.3 °F 30.2 in SSW 12.1 mph 24.4 mph 60% 0 in 0 W/m2
21:20 47.3 °F 35.1 °F 30.2 in SW 13.6 mph 27.3 mph 62% 0 in 0 W/m2
21:25 47.3 °F 35.4 °F 30.2 in SW 18.3 mph 27.3 mph 63% 0 in 0 W/m2
21:30 47.1 °F 34.9 °F 30.2 in WSW 12.1 mph 26.6 mph 62% 0 in 0 W/m2
21:35 46.9 °F 35.4 °F 30.2 in SW 15.2 mph 26.6 mph 64% 0 in 0 W/m2
21:40 47.1 °F 36 °F 30.2 in SW 14.5 mph 24.4 mph 65% 0 in 0 W/m2
21:46 46.9 °F 35.8 °F 30.2 in WSW 15.2 mph 25.9 mph 65% 0 in 0 W/m2
21:51 46.9 °F 34.5 °F 30.2 in SW 12.1 mph 25.9 mph 62% 0 in 0 W/m2
21:56 46.9 °F 35.8 °F 30.2 in SW 9.8 mph 22.8 mph 65% 0 in 0 W/m2
22:01 46.6 °F 37 °F 30.2 in SW 8.3 mph 22.8 mph 69% 0 in 0 W/m2
22:06 46.4 °F 37.2 °F 30.2 in SW 9.2 mph 14.5 mph 70% 0 in 0 W/m2
22:11 46.2 °F 37 °F 30.2 in WSW 6 mph 14.5 mph 70% 0 in 0 W/m2
22:16 45.9 °F 36.7 °F 30.2 in West 9.8 mph 17.4 mph 70% 0 in 0 W/m2
22:21 46 °F 36.9 °F 30.2 in WSW 13 mph 22.8 mph 70% 0 in 0 W/m2
22:26 46.2 °F 36.7 °F 30.2 in WSW 8.3 mph 22.8 mph 69% 0 in 0 W/m2
22:31 46 °F 36.1 °F 30.2 in WSW 10.7 mph 19.7 mph 68% 0 in 0 W/m2
22:36 45.9 °F 36.3 °F 30.2 in WSW 9.8 mph 19.7 mph 69% 0 in 0 W/m2
22:41 45.7 °F 36.9 °F 30.2 in WSW 9.2 mph 16.8 mph 71% 0 in 0 W/m2
22:46 45.7 °F 36.5 °F 30.3 in WSW 11.4 mph 17.4 mph 70% 0 in 0 W/m2
22:51 45.7 °F 36.9 °F 30.2 in WSW 8.3 mph 17.4 mph 71% 0 in 0 W/m2
22:56 45.7 °F 36.9 °F 30.2 in WSW 9.2 mph 17.4 mph 71% 0 in 0 W/m2
23:01 45.7 °F 36.9 °F 30.2 in West 9.8 mph 15.2 mph 71% 0 in 0 W/m2
23:06 45.9 °F 36.7 °F 30.2 in West 14.5 mph 22.1 mph 70% 0 in 0 W/m2
23:11 45.9 °F 36.3 °F 30.2 in West 7.6 mph 22.1 mph 69% 0 in 0 W/m2
23:16 45.7 °F 35.8 °F 30.3 in West 9.2 mph 16.8 mph 68% 0 in 0 W/m2
23:21 45.5 °F 36 °F 30.3 in West 5.4 mph 15.9 mph 69% 0 in 0 W/m2
23:26 45.5 °F 35.6 °F 30.2 in WSW 14.5 mph 20.6 mph 68% 0 in 0 W/m2
23:31 45.5 °F 35.2 °F 30.3 in SW 13.6 mph 20.6 mph 67% 0 in 0 W/m2
23:36 45.5 °F 35.2 °F 30.3 in SW 9.2 mph 19 mph 67% 0 in 0 W/m2
23:41 45.5 °F 36 °F 30.3 in WSW 12.1 mph 19 mph 69% 0 in 0 W/m2
23:46 45.3 °F 35.8 °F 30.3 in SW 12.1 mph 17.4 mph 69% 0 in 0 W/m2
23:51 45.3 °F 35.4 °F 30.3 in SW 10.7 mph 20.6 mph 68% 0 in 0 W/m2
23:56 45.1 °F 35.2 °F 30.3 in SW 6 mph 20.6 mph 68% 0 in 0 W/m2
Northern Hawkes Bay. New Zealand Historic Data
Compliments of Weather Underground - 2.25 mb